LSMA

Details ICAO LSMA
Name Alpnach
Region Switzerland
Timezone Europe/Zurich (UTC+2.0)
Plans Departing 13
Arriving 5
Stats Elevation 1,460 ft / 445 m (AMSL)
Location 46.943334° 8.285000°
Runways 1
Magnetic Variation 2.330° E
Sunrise 2018-05-21 03:46:37 UTC / 2018-05-21 05:46:37 Local
Sunset 2018-05-21 19:03:08 UTC / 2018-05-21 21:03:08 Local
Advertisement - Login to hide

Runways

ID Width Length Bearing (true) Bearing (mag) Surface Threshold Offset Overrun Length
01 130 ft / 40 m 4,936 ft / 1,504 m 9.69° 7.36° Asphalt 0 ft / 0 m 328 ft / 100 m
19 130 ft / 40 m 4,936 ft / 1,504 m 189.69° 187.36° Asphalt 0 ft / 0 m 1,640 ft / 500 m

Map

Weather


0- 5 10 15 20 25 30 35+ Temperature / ° C

Clouds and Precipitation
Forecast for 2018-05-21 06:00 UTC. Updated 33 minutes ago

Ground ~20,000 ft ~40,000 ft Winds

METAR

LSMA 210250Z AUTO 00000KT 9999NDV FEW180 09/08 Q1015 RMK

TAF

Not found

Frequencies

Tower 119.62 MHz TWR
Warning: Do not use this data for real-world aviation or navigation. No guarantee of current accuracy is given.